Time;durP1;ratioP1;P1;durP2;ratioP2;P2;SDS_P1;SDS_P2;PMS_P1;PMS_P2;Temp;Humidity;BMP_temperature;BMP_pressure;BME280_temperature;BME280_humidity;BME280_pressure;Samples;Min_cycle;Max_cycle;Signal;HPM_P1;HPM_P2
2021/06/20 00:01:59;;;;;;;8.27;7.43;;;;;;;24.17;53.76;100102.80;126621;1090;114464;-82
2021/06/20 00:04:48;;;;;;;9.13;7.70;;;;;;;24.11;53.23;100101.55;126819;1089;103058;-82
2021/06/20 00:07:39;;;;;;;11.47;8.07;;;;;;;24.06;54.37;100097.63;126680;1090;114471;-82
2021/06/20 00:10:28;;;;;;;10.07;7.37;;;;;;;24.01;53.78;100091.85;126788;1090;102847;-82
2021/06/20 00:13:19;;;;;;;9.50;7.67;;;;;;;23.96;54.46;100089.61;126953;1090;102945;-81
2021/06/20 00:16:07;;;;;;;9.43;7.87;;;;;;;23.93;54.81;100097.05;126831;1090;114040;-82
2021/06/20 00:18:55;;;;;;;10.03;7.40;;;;;;;23.90;54.75;100095.50;126853;1088;102874;-82
2021/06/20 00:21:43;;;;;;;8.57;7.70;;;;;;;23.89;54.49;100103.63;126604;1090;113384;-81
2021/06/20 00:24:30;;;;;;;10.57;7.40;;;;;;;23.86;54.75;100096.73;126900;1090;102865;-82
2021/06/20 00:27:18;;;;;;;11.27;7.70;;;;;;;23.85;54.67;100096.88;126678;1090;113462;-82
2021/06/20 00:30:13;;;;;;;7.97;7.13;;;;;;;23.83;54.87;100099.68;126946;1090;102967;-82
2021/06/20 00:33:01;;;;;;;11.80;7.33;;;;;;;23.79;55.07;100093.80;126715;1089;114406;-82
2021/06/20 00:35:49;;;;;;;8.83;7.10;;;;;;;23.79;55.02;100095.62;126807;1090;102914;-81
2021/06/20 00:38:38;;;;;;;10.15;6.95;;;;;;;23.78;54.68;100101.92;126804;1090;113178;-81
2021/06/20 00:41:26;;;;;;;9.80;7.20;;;;;;;23.77;54.79;100105.56;126814;1088;102858;-81
2021/06/20 00:44:13;;;;;;;9.27;7.37;;;;;;;23.76;55.03;100098.56;126832;1089;113339;-81
2021/06/20 00:47:01;;;;;;;9.67;7.53;;;;;;;23.76;55.54;100106.55;126800;1088;103133;-82
2021/06/20 00:49:50;;;;;;;8.50;7.20;;;;;;;23.70;54.75;100099.95;126745;1089;114319;-82
2021/06/20 00:52:40;;;;;;;13.27;7.03;;;;;;;23.63;55.18;100098.80;126846;1090;102848;-82
2021/06/20 00:55:29;;;;;;;10.83;6.83;;;;;;;23.56;55.15;100096.80;126824;1090;103316;-82
2021/06/20 00:58:23;;;;;;;10.77;7.40;;;;;;;23.46;55.36;100108.24;126722;1089;113158;-82
2021/06/20 01:01:10;;;;;;;8.63;7.40;;;;;;;23.38;55.28;100099.27;126817;1090;103128;-82
2021/06/20 01:04:00;;;;;;;8.43;7.70;;;;;;;23.30;55.32;100096.41;126554;1090;114148;-82
2021/06/20 01:06:47;;;;;;;9.47;7.83;;;;;;;23.23;55.78;100089.95;126845;1090;103061;-82
2021/06/20 01:09:36;;;;;;;8.47;7.50;;;;;;;23.17;56.05;100084.20;126801;1088;114668;-82
2021/06/20 01:12:25;;;;;;;8.70;7.53;;;;;;;23.14;56.04;100086.27;126881;1088;102863;-82
2021/06/20 01:15:16;;;;;;;9.33;7.80;;;;;;;23.10;56.52;100085.70;126693;1090;114251;-82
2021/06/20 01:18:07;;;;;;;8.83;7.67;;;;;;;23.08;56.13;100081.48;126776;1089;102968;-82
2021/06/20 01:20:56;;;;;;;10.77;8.00;;;;;;;23.11;57.00;100082.05;126747;1089;114368;-82
2021/06/20 01:23:44;;;;;;;10.40;8.63;;;;;;;23.16;56.82;100084.31;126778;1089;102948;-82
2021/06/20 01:26:33;;;;;;;11.00;8.87;;;;;;;23.20;57.34;100069.78;126732;1090;114439;-82
2021/06/20 01:29:23;;;;;;;10.90;9.17;;;;;;;23.20;57.18;100059.98;126786;1089;101471;-82
2021/06/20 01:32:13;;;;;;;10.93;9.30;;;;;;;23.21;57.20;100066.98;126680;1089;113468;-82
2021/06/20 01:35:02;;;;;;;12.83;10.10;;;;;;;23.23;57.26;100069.52;126805;1090;102859;-82
2021/06/20 01:37:55;;;;;;;12.10;10.27;;;;;;;23.22;57.56;100067.83;126789;1090;103004;-82
2021/06/20 01:40:43;;;;;;;13.50;10.37;;;;;;;23.14;57.31;100059.66;126686;1090;114317;-81
2021/06/20 01:43:30;;;;;;;11.17;10.07;;;;;;;23.11;57.41;100059.94;126800;1088;100668;-82
2021/06/20 01:46:18;;;;;;;;;;;;;;;23.06;58.13;100057.69;126690;1090;114465;-82
2021/06/20 01:49:07;;;;;;;12.00;10.85;;;;;;;23.02;57.80;100066.06;126943;1090;102879;-81
2021/06/20 01:51:57;;;;;;;11.60;10.50;;;;;;;23.00;58.22;100057.38;126733;1090;113525;-82
2021/06/20 01:54:51;;;;;;;14.87;11.30;;;;;;;22.97;58.31;100063.78;126812;1089;102987;-81
2021/06/20 01:57:43;;;;;;;13.87;11.20;;;;;;;22.93;58.29;100061.53;126667;1089;114497;-82
2021/06/20 02:00:34;;;;;;;13.03;10.93;;;;;;;22.91;58.19;100070.48;126779;1088;102878;-82
2021/06/20 02:03:27;;;;;;;11.40;10.27;;;;;;;22.88;58.70;100069.91;126712;1090;113562;-82
2021/06/20 02:06:15;;;;;;;12.33;11.03;;;;;;;22.88;58.61;100081.39;126832;1090;100636;-82
2021/06/20 02:09:05;;;;;;;13.40;11.23;;;;;;;22.87;58.61;100069.07;126800;1088;114623;-82
2021/06/20 02:11:53;;;;;;;11.90;10.70;;;;;;;22.85;58.51;100070.19;126755;1088;102864;-82
2021/06/20 02:14:42;;;;;;;11.70;10.50;;;;;;;22.79;58.70;100060.02;126666;1090;113592;-82
2021/06/20 02:17:34;;;;;;;12.73;11.33;;;;;;;22.71;58.62;100051.88;126766;1090;102974;-82
2021/06/20 02:20:23;;;;;;;15.20;11.43;;;;;;;22.63;58.91;100057.86;126741;1090;102956;-82
2021/06/20 02:23:11;;;;;;;12.80;11.07;;;;;;;22.56;58.94;100069.97;126864;1089;102894;-82
2021/06/20 02:25:59;;;;;;;12.60;11.07;;;;;;;22.46;59.13;100067.27;126769;1089;103030;-82
2021/06/20 02:28:47;;;;;;;12.97;11.00;;;;;;;22.39;59.12;100071.39;126574;1088;114387;-81
2021/06/20 02:31:35;;;;;;;13.47;11.53;;;;;;;22.33;59.13;100074.57;126754;1090;102850;-82
2021/06/20 02:34:23;;;;;;;13.43;11.03;;;;;;;22.28;59.39;100072.30;126609;1089;114590;-82
2021/06/20 02:37:12;;;;;;;13.50;11.70;;;;;;;22.23;59.61;100069.17;126826;1090;103023;-82
2021/06/20 02:40:00;;;;;;;13.73;11.33;;;;;;;22.18;59.77;100076.69;126696;1089;114638;-82
2021/06/20 02:42:49;;;;;;;12.30;11.00;;;;;;;22.11;60.25;100085.30;126938;1089;102959;-82
2021/06/20 02:45:37;;;;;;;12.53;11.03;;;;;;;22.07;60.51;100086.50;126815;1089;114478;-82
2021/06/20 02:48:25;;;;;;;14.60;11.10;;;;;;;22.07;60.79;100100.63;126963;1089;103012;-82
2021/06/20 02:51:13;;;;;;;13.50;11.53;;;;;;;22.09;60.67;100100.53;126825;1089;114597;-82
2021/06/20 02:54:01;;;;;;;13.90;11.23;;;;;;;22.08;61.13;100098.81;126915;1090;102852;-82
2021/06/20 02:56:49;;;;;;;13.30;11.90;;;;;;;22.09;61.25;100100.53;126664;1089;114795;-82
2021/06/20 02:59:37;;;;;;;12.40;11.20;;;;;;;22.12;60.69;100103.77;126830;1089;103097;-82
2021/06/20 03:02:26;;;;;;;12.67;11.33;;;;;;;22.14;61.07;100111.61;126723;1087;115623;-82
2021/06/20 03:05:14;;;;;;;15.07;11.17;;;;;;;22.12;61.17;100110.89;126796;1090;102991;-82
2021/06/20 03:08:03;;;;;;;17.13;11.37;;;;;;;22.11;61.04;100096.77;126769;1090;102910;-82
2021/06/20 03:10:51;;;;;;;12.03;10.93;;;;;;;22.14;61.06;100098.33;126668;1088;114353;-81
2021/06/20 03:13:40;;;;;;;11.53;10.43;;;;;;;22.16;61.28;100099.88;126779;1089;100778;-82
2021/06/20 03:16:28;;;;;;;12.83;10.57;;;;;;;22.18;61.42;100097.94;126697;1090;114617;-82
2021/06/20 03:19:16;;;;;;;11.47;10.30;;;;;;;22.16;60.98;100093.73;126729;1089;101062;-82
2021/06/20 03:22:05;;;;;;;15.03;10.90;;;;;;;22.13;61.18;100097.48;126696;1089;114690;-82
2021/06/20 03:24:56;;;;;;;13.77;11.13;;;;;;;22.07;61.46;100100.63;126753;1089;103111;-81
2021/06/20 03:27:45;;;;;;;14.97;10.40;;;;;;;21.99;60.78;100103.05;126685;1090;113438;-82
2021/06/20 03:30:36;;;;;;;14.43;10.90;;;;;;;21.93;61.21;100106.22;126806;1090;102954;-82
2021/06/20 03:33:24;;;;;;;11.07;10.07;;;;;;;21.88;61.94;100100.41;126737;1090;114450;-82
2021/06/20 03:36:13;;;;;;;11.97;10.03;;;;;;;21.81;61.57;100105.39;126785;1088;102904;-81
2021/06/20 03:39:03;;;;;;;11.43;10.30;;;;;;;21.78;61.83;100104.80;126633;1090;114738;-82
2021/06/20 03:41:52;;;;;;;14.20;10.07;;;;;;;21.77;61.89;100093.34;126764;1090;102865;-82
2021/06/20 03:44:41;;;;;;;12.50;9.97;;;;;;;21.74;62.11;100092.75;126677;1088;113834;-82
2021/06/20 03:47:29;;;;;;;13.70;10.07;;;;;;;21.72;62.30;100087.53;126921;1090;102914;-82
2021/06/20 03:50:19;;;;;;;13.03;9.87;;;;;;;21.70;62.30;100092.97;126806;1089;100678;-82
2021/06/20 03:53:07;;;;;;;10.73;9.17;;;;;;;21.71;62.08;100083.20;126669;1090;113181;-82
2021/06/20 03:55:56;;;;;;;10.87;9.03;;;;;;;21.77;62.39;100084.53;126808;1090;102965;-82
2021/06/20 03:58:45;;;;;;;8.70;7.80;;;;;;;21.79;61.57;100080.78;126632;1089;114367;-82
2021/06/20 04:01:33;;;;;;;11.33;8.67;;;;;;;21.82;61.64;100082.34;126959;1089;102957;-82
2021/06/20 04:04:22;;;;;;;10.20;7.53;;;;;;;21.84;60.64;100077.74;126723;1088;113214;-82
2021/06/20 04:07:12;;;;;;;9.53;7.40;;;;;;;21.86;60.91;100075.80;126746;1089;102862;-82
2021/06/20 04:10:04;;;;;;;13.20;7.00;;;;;;;21.85;60.66;100079.42;126841;1089;114068;-82
2021/06/20 04:12:53;;;;;;;7.83;7.03;;;;;;;21.89;60.09;100080.86;126776;1089;102870;-82
2021/06/20 04:15:42;;;;;;;10.50;7.40;;;;;;;21.91;60.55;100078.95;126737;1089;114208;-82
2021/06/20 04:18:30;;;;;;;8.83;6.70;;;;;;;21.94;59.72;100081.34;126734;1088;102894;-81
2021/06/20 04:21:19;;;;;;;6.95;6.30;;;;;;;21.91;60.07;100087.75;126612;1088;113190;-81
2021/06/20 04:24:08;;;;;;;8.10;6.83;;;;;;;21.90;59.68;100087.85;126773;1089;102933;-81
2021/06/20 04:26:59;;;;;;;8.93;6.90;;;;;;;21.88;59.61;100098.59;126702;1089;114274;-81
2021/06/20 04:29:47;;;;;;;7.33;6.63;;;;;;;21.88;59.75;100095.94;126795;1090;102861;-81
2021/06/20 04:32:37;;;;;;;8.73;7.27;;;;;;;21.87;59.83;100096.07;126824;1090;102845;-81
2021/06/20 04:35:26;;;;;;;9.33;6.57;;;;;;;21.85;59.73;100104.16;126663;1090;113994;-81
2021/06/20 04:38:15;;;;;;;9.43;6.80;;;;;;;21.87;60.07;100094.26;126785;1090;102855;-81
2021/06/20 04:41:06;;;;;;;8.27;6.77;;;;;;;21.92;59.80;100091.25;126722;1090;114220;-81
2021/06/20 04:43:58;;;;;;;8.80;6.60;;;;;;;21.95;59.93;100097.15;126831;1089;102866;-81
2021/06/20 04:46:50;;;;;;;6.93;5.83;;;;;;;21.99;59.80;100101.23;126863;1090;115188;-81
2021/06/20 04:49:39;;;;;;;7.53;6.73;;;;;;;22.01;59.69;100101.11;126803;1090;103049;-81
2021/06/20 04:52:27;;;;;;;9.20;6.10;;;;;;;22.03;59.51;100094.69;126677;1089;114511;-81
2021/06/20 04:55:15;;;;;;;8.10;6.27;;;;;;;22.09;59.85;100098.71;126809;1089;103731;-81
2021/06/20 04:58:03;;;;;;;7.40;5.87;;;;;;;22.15;59.61;100092.88;126659;1090;114355;-81
2021/06/20 05:00:51;;;;;;;6.73;6.10;;;;;;;22.19;59.76;100083.69;126818;1090;102856;-81
2021/06/20 05:03:38;;;;;;;9.20;6.47;;;;;;;22.26;59.47;100079.56;126693;1090;113601;-81
2021/06/20 05:06:26;;;;;;;8.03;6.43;;;;;;;22.34;59.59;100081.57;126872;1088;102855;-81
2021/06/20 05:09:15;;;;;;;8.67;7.40;;;;;;;22.46;58.87;100087.68;126844;1088;113405;-81
2021/06/20 05:12:06;;;;;;;9.87;8.67;;;;;;;22.57;59.23;100083.13;126796;1089;102895;-81
2021/06/20 05:14:54;;;;;;;8.97;8.07;;;;;;;22.67;59.27;100079.70;126755;1090;101805;-81
2021/06/20 05:17:42;;;;;;;8.83;7.97;;;;;;;22.78;59.20;100082.27;126706;1090;114356;-81
2021/06/20 05:20:29;;;;;;;8.97;7.30;;;;;;;22.88;57.80;100081.39;126793;1088;102882;-81
2021/06/20 05:23:19;;;;;;;8.50;7.70;;;;;;;22.94;58.03;100071.19;126722;1088;113330;-81
2021/06/20 05:26:08;;;;;;;8.95;7.55;;;;;;;23.05;57.18;100071.95;126814;1090;101339;-81
2021/06/20 05:28:56;;;;;;;9.10;7.97;;;;;;;23.19;56.84;100060.13;126687;1089;114112;-81
2021/06/20 05:31:44;;;;;;;8.83;7.70;;;;;;;23.39;57.01;100055.70;126801;1090;102997;-81
2021/06/20 05:34:33;;;;;;;8.53;7.63;;;;;;;23.63;57.05;100050.88;126668;1089;114193;-81
2021/06/20 05:37:20;;;;;;;9.67;7.20;;;;;;;23.87;55.97;100053.14;126781;1090;103068;-81
2021/06/20 05:40:09;;;;;;;8.63;7.17;;;;;;;24.03;55.95;100058.76;126741;1090;114305;-81
2021/06/20 05:42:57;;;;;;;7.20;6.50;;;;;;;24.23;55.07;100059.59;126791;1090;102907;-82
2021/06/20 05:45:44;;;;;;;8.73;6.83;;;;;;;24.41;54.17;100073.08;126672;1089;113377;-82
2021/06/20 05:48:32;;;;;;;10.00;7.00;;;;;;;24.52;54.01;100069.43;126717;1088;102675;-81
2021/06/20 05:51:21;;;;;;;8.23;6.83;;;;;;;24.64;53.07;100078.96;126693;1089;114472;-81
2021/06/20 05:54:09;;;;;;;6.83;6.13;;;;;;;24.78;52.82;100085.67;126796;1089;102872;-81
2021/06/20 05:56:57;;;;;;;7.00;6.30;;;;;;;24.97;52.75;100083.79;126829;1088;102998;-81
2021/06/20 05:59:45;;;;;;;7.93;5.83;;;;;;;25.47;52.23;100061.24;126743;1089;114264;-81
2021/06/20 06:02:33;;;;;;;5.65;5.00;;;;;;;26.72;51.61;100051.41;126718;1090;102884;-82
2021/06/20 06:05:22;;;;;;;5.27;4.77;;;;;;;28.62;47.95;100051.63;126745;1089;114560;-83
2021/06/20 06:08:11;;;;;;;6.70;5.05;;;;;;;30.28;43.99;100045.15;126729;1088;100915;-82
2021/06/20 06:10:58;;;;;;;5.17;4.67;;;;;;;31.75;41.35;100047.88;126630;1090;113311;-81
2021/06/20 06:13:45;;;;;;;5.43;4.27;;;;;;;33.11;39.46;100051.31;126760;1088;102874;-82
2021/06/20 06:16:33;;;;;;;5.77;4.50;;;;;;;34.33;37.62;100040.45;126659;1090;113065;-81
2021/06/20 06:19:21;;;;;;;5.43;4.00;;;;;;;35.35;34.76;100051.54;126770;1090;102919;-79
2021/06/20 06:22:09;;;;;;;6.80;4.40;;;;;;;36.10;33.76;100051.78;126675;1088;114302;-80
2021/06/20 06:24:56;;;;;;;4.37;3.30;;;;;;;36.88;32.42;100051.33;126692;1089;103399;-78
2021/06/20 06:27:46;;;;;;;4.90;3.50;;;;;;;37.80;31.80;100054.81;126599;1090;113289;-78
2021/06/20 06:30:34;;;;;;;5.27;3.30;;;;;;;38.63;28.52;100054.78;126564;1089;102861;-80
2021/06/20 06:33:23;;;;;;;4.80;4.00;;;;;;;39.04;26.41;100073.93;126508;1089;114479;-78
2021/06/20 06:36:10;;;;;;;5.47;3.40;;;;;;;38.97;25.43;100068.62;126704;1089;104725;-79
2021/06/20 06:38:58;;;;;;;5.70;3.40;;;;;;;39.17;26.35;100062.80;126621;1089;102885;-79
2021/06/20 06:41:46;;;;;;;7.60;3.20;;;;;;;39.61;26.80;100065.88;126495;1089;113929;-79
2021/06/20 06:44:37;;;;;;;4.40;3.20;;;;;;;40.08;25.21;100064.59;126624;1089;102887;-79
2021/06/20 06:47:25;;;;;;;3.27;2.67;;;;;;;40.26;24.18;100063.52;126538;1090;113057;-78
2021/06/20 06:50:14;;;;;;;4.37;3.30;;;;;;;40.15;23.61;100073.44;126733;1089;101018;-78
2021/06/20 06:53:02;;;;;;;4.50;3.00;;;;;;;40.40;23.26;100061.33;126594;1088;114217;-79
2021/06/20 06:55:50;;;;;;;4.63;3.00;;;;;;;40.60;22.68;100069.83;126644;1088;100784;-80
2021/06/20 06:58:39;;;;;;;4.97;3.40;;;;;;;40.49;22.72;100068.01;126601;1090;114108;-79
2021/06/20 07:01:27;;;;;;;4.10;2.80;;;;;;;40.27;21.88;100069.81;126738;1089;102871;-78
2021/06/20 07:04:15;;;;;;;4.03;2.93;;;;;;;40.04;22.96;100073.51;126619;1088;114746;-78
2021/06/20 07:07:04;;;;;;;6.30;3.33;;;;;;;40.09;22.77;100058.05;126536;1089;102855;-79
2021/06/20 07:09:51;;;;;;;4.57;3.40;;;;;;;40.20;22.22;100069.13;126489;1090;113256;-78
2021/06/20 07:12:39;;;;;;;8.03;3.70;;;;;;;40.32;22.76;100056.23;126709;1088;103042;-78
2021/06/20 07:15:27;;;;;;;3.30;2.87;;;;;;;40.52;22.84;100064.77;126676;1090;114282;-78
2021/06/20 07:18:15;;;;;;;4.00;2.77;;;;;;;40.83;22.88;100059.78;126583;1090;103043;-79
2021/06/20 07:21:04;;;;;;;4.83;3.10;;;;;;;41.24;23.20;100059.25;126648;1090;103416;-79
2021/06/20 07:23:52;;;;;;;4.57;2.70;;;;;;;41.75;22.75;100056.29;126799;1089;112761;-79
2021/06/20 07:26:40;;;;;;;3.30;3.00;;;;;;;42.36;22.31;100043.95;126653;1090;103081;-79
2021/06/20 07:29:28;;;;;;;4.70;2.77;;;;;;;42.75;21.86;100035.47;126703;1088;114387;-79
2021/06/20 07:32:18;;;;;;;5.53;2.70;;;;;;;42.97;20.40;100046.30;126787;1090;102897;-79
2021/06/20 07:35:08;;;;;;;4.83;3.37;;;;;;;43.10;20.50;100041.16;126491;1089;113080;-79
2021/06/20 07:37:56;;;;;;;3.77;2.97;;;;;;;43.11;20.42;100051.04;126590;1089;103013;-79
2021/06/20 07:40:43;;;;;;;5.35;2.80;;;;;;;43.15;20.54;100045.01;126581;1088;114118;-79
2021/06/20 07:43:31;;;;;;;3.50;2.65;;;;;;;43.01;20.28;100045.50;126672;1088;102895;-79
2021/06/20 07:46:19;;;;;;;4.90;2.80;;;;;;;42.71;20.11;100045.30;126640;1090;114124;-79
2021/06/20 07:49:07;;;;;;;2.83;2.63;;;;;;;42.15;20.16;100047.63;126710;1090;102947;-79
2021/06/20 07:51:55;;;;;;;3.97;3.40;;;;;;;41.88;19.74;100050.40;126530;1090;114457;-79
2021/06/20 07:54:49;;;;;;;4.57;3.00;;;;;;;41.30;20.78;100055.52;126724;1090;103019;-79
2021/06/20 07:57:37;;;;;;;4.30;2.83;;;;;;;41.00;21.25;100057.83;126556;1088;113386;-79
2021/06/20 08:00:24;;;;;;;3.30;3.00;;;;;;;40.88;21.20;100051.64;126818;1090;102854;-79
2021/06/20 08:03:13;;;;;;;3.00;2.70;;;;;;;40.97;20.69;100048.23;126765;1089;102882;-79
2021/06/20 08:06:00;;;;;;;6.97;3.20;;;;;;;40.87;20.65;100044.52;126581;1089;112857;-79
2021/06/20 08:08:54;;;;;;;3.50;3.10;;;;;;;40.33;20.95;100047.78;126802;1090;102965;-79
2021/06/20 08:11:42;;;;;;;4.10;3.23;;;;;;;39.80;21.35;100038.12;126682;1088;114076;-79
2021/06/20 08:14:30;;;;;;;4.40;3.20;;;;;;;39.50;21.47;100051.16;126787;1090;102843;-79
2021/06/20 08:17:18;;;;;;;5.35;3.40;;;;;;;39.08;22.03;100045.96;126553;1090;114342;-79
2021/06/20 08:20:08;;;;;;;6.53;3.20;;;;;;;39.07;22.26;100041.55;126747;1090;102862;-79
2021/06/20 08:22:55;;;;;;;4.07;3.37;;;;;;;38.89;22.32;100037.08;126568;1090;114280;-79
2021/06/20 08:25:43;;;;;;;3.00;2.70;;;;;;;38.79;22.79;100028.70;126751;1090;102857;-79
2021/06/20 08:28:32;;;;;;;3.57;3.27;;;;;;;38.66;22.40;100037.11;126664;1090;113069;-79
2021/06/20 08:31:20;;;;;;;4.40;2.90;;;;;;;38.64;23.63;100040.08;126637;1090;102886;-79
2021/06/20 08:34:08;;;;;;;3.13;2.67;;;;;;;38.87;23.16;100043.84;126440;1089;114711;-79
2021/06/20 08:37:00;;;;;;;4.70;3.30;;;;;;;38.88;22.30;100062.69;126638;1090;105068;-79
2021/06/20 08:39:48;;;;;;;4.50;3.50;;;;;;;38.54;22.82;100044.42;126497;1088;113256;-79
2021/06/20 08:42:37;;;;;;;3.23;2.90;;;;;;;38.00;22.33;100051.80;126655;1089;102907;-79
2021/06/20 08:45:25;;;;;;;6.70;3.00;;;;;;;37.72;23.39;100046.96;126604;1089;102953;-78
2021/06/20 08:48:13;;;;;;;3.33;3.03;;;;;;;37.55;23.13;100054.94;126508;1088;113973;-79
2021/06/20 08:51:01;;;;;;;3.60;3.20;;;;;;;37.27;24.00;100065.55;126635;1090;103036;-79
2021/06/20 08:53:50;;;;;;;6.97;3.40;;;;;;;37.10;24.61;100062.58;126511;1090;114096;-79
2021/06/20 08:56:38;;;;;;;5.00;3.47;;;;;;;37.23;24.45;100061.59;126645;1089;102940;-79
2021/06/20 08:59:26;;;;;;;3.60;3.23;;;;;;;36.96;24.22;100075.48;126782;1090;114169;-79
2021/06/20 09:02:26;;;;;;;3.20;3.00;;;;;;;36.53;24.25;100062.72;126583;1089;102872;-79
2021/06/20 09:05:15;;;;;;;8.13;2.97;;;;;;;36.33;24.93;100053.92;126527;1088;113226;-79
2021/06/20 09:08:16;;;;;;;3.83;2.80;;;;;;;36.11;24.85;100045.30;126563;1089;102942;-78
2021/06/20 09:11:04;;;;;;;2.50;2.30;;;;;;;35.76;25.35;100050.30;126497;1089;114332;-78
2021/06/20 09:14:09;;;;;;;4.37;2.90;;;;;;;35.64;25.12;100054.75;126604;1090;102982;-78
2021/06/20 09:17:15;;;;;;;3.60;2.90;;;;;;;35.74;26.49;100033.42;126510;1090;113318;-80
2021/06/20 09:20:08;;;;;;;4.25;3.10;;;;;;;35.91;26.11;100031.02;126696;1090;102874;-80
2021/06/20 09:22:57;;;;;;;5.53;3.40;;;;;;;36.26;25.57;100029.48;126573;1090;114513;-79
2021/06/20 09:25:55;;;;;;;4.07;3.07;;;;;;;36.44;25.41;100045.02;126747;1089;102879;-80
2021/06/20 09:28:47;;;;;;;4.43;2.90;;;;;;;36.43;24.89;100059.66;126496;1090;113312;-80
2021/06/20 09:31:46;;;;;;;3.87;2.77;;;;;;;36.11;24.48;100048.02;126593;1089;102727;-80
2021/06/20 09:35:01;;;;;;;2.70;2.50;;;;;;;35.69;25.09;100049.50;126526;1089;114626;-79
2021/06/20 09:37:58;;;;;;;5.10;3.07;;;;;;;35.18;25.46;100042.19;126740;1089;103022;-78
2021/06/20 09:40:46;;;;;;;3.20;2.90;;;;;;;34.98;26.62;100031.42;126623;1090;114221;-80
2021/06/20 09:43:35;;;;;;;4.77;3.00;;;;;;;34.86;26.47;100056.70;126618;1090;102853;-80
2021/06/20 09:46:24;;;;;;;4.07;3.03;;;;;;;34.62;26.74;100045.44;126598;1090;114516;-80
2021/06/20 09:49:12;;;;;;;3.53;3.00;;;;;;;34.66;27.68;100045.88;126724;1090;101680;-80
2021/06/20 09:52:00;;;;;;;3.77;3.03;;;;;;;34.80;27.01;100034.77;126608;1090;114445;-80
2021/06/20 09:54:56;;;;;;;6.40;2.77;;;;;;;34.66;26.53;100029.62;126816;1088;102854;-80
2021/06/20 09:57:46;;;;;;;2.83;2.30;;;;;;;34.53;26.71;100017.75;126585;1088;102980;-80
2021/06/20 10:00:42;;;;;;;3.00;2.70;;;;;;;34.61;27.06;100032.94;126288;1090;112918;-80
2021/06/20 10:03:30;;;;;;;4.60;3.05;;;;;;;34.44;27.28;100034.41;126832;1090;102909;-80
2021/06/20 10:06:18;;;;;;;2.57;2.30;;;;;;;34.36;27.25;100023.81;126518;1090;114691;-80
2021/06/20 10:09:06;;;;;;;3.43;2.50;;;;;;;34.50;26.59;100010.05;126834;1090;102946;-80
2021/06/20 10:11:54;;;;;;;5.33;2.93;;;;;;;34.41;27.03;100011.30;126671;1089;113207;-80
2021/06/20 10:14:43;;;;;;;5.97;2.77;;;;;;;34.40;27.01;100003.39;126784;1090;102991;-80
2021/06/20 10:17:34;;;;;;;4.50;2.70;;;;;;;34.38;27.13;99991.94;126618;1090;114219;-80
2021/06/20 10:20:22;;;;;;;2.50;2.30;;;;;;;34.56;27.50;100002.95;126798;1090;102884;-80
2021/06/20 10:23:18;;;;;;;3.03;2.60;;;;;;;34.64;27.20;99993.76;126552;1090;113210;-80
2021/06/20 10:26:08;;;;;;;3.90;2.70;;;;;;;34.43;27.19;99987.55;126444;1090;102926;-80
2021/06/20 10:28:57;;;;;;;7.13;2.90;;;;;;;34.27;27.21;99981.70;126476;1090;103028;-79
2021/06/20 10:31:45;;;;;;;3.93;2.87;;;;;;;34.03;27.43;99980.47;126251;1088;113922;-80
2021/06/20 10:34:33;;;;;;;3.23;2.80;;;;;;;33.97;27.57;99976.73;126527;1088;102879;-80
2021/06/20 10:37:22;;;;;;;2.63;2.20;;;;;;;34.11;27.85;99970.29;126552;1088;112980;-80
2021/06/20 10:40:31;;;;;;;2.53;2.30;;;;;;;34.06;26.48;99959.23;126834;1090;102896;-80
2021/06/20 10:43:20;;;;;;;5.50;2.50;;;;;;;33.89;25.87;99966.10;126616;1090;114381;-80
2021/06/20 10:46:15;;;;;;;3.50;2.50;;;;;;;33.74;26.41;99943.80;126599;1090;102855;-79
2021/06/20 10:49:14;;;;;;;2.63;2.43;;;;;;;33.41;26.48;99938.36;126336;1088;114165;-79
2021/06/20 10:52:23;;;;;;;2.83;2.63;;;;;;;33.01;27.29;99955.23;126546;1088;103033;-79
2021/06/20 10:55:15;;;;;;;5.40;2.63;;;;;;;32.76;27.87;99948.66;126646;1090;114044;-79
2021/06/20 10:58:25;;;;;;;7.30;2.70;;;;;;;32.57;27.94;99943.98;126686;1088;102937;-79
2021/06/20 11:01:16;;;;;;;2.90;2.70;;;;;;;32.40;28.46;99949.70;126618;1090;112902;-80
2021/06/20 11:04:04;;;;;;;3.20;2.90;;;;;;;32.37;29.53;99949.27;126661;1090;102865;-80
2021/06/20 11:06:56;;;;;;;3.43;3.03;;;;;;;32.44;29.12;99952.83;126585;1088;114121;-79
2021/06/20 11:09:44;;;;;;;6.73;2.90;;;;;;;32.27;29.02;99957.70;126725;1089;103015;-80
2021/06/20 11:12:34;;;;;;;3.90;2.93;;;;;;;32.00;28.88;99966.61;126534;1088;112903;-79
2021/06/20 11:15:27;;;;;;;4.70;3.25;;;;;;;31.80;29.57;99944.86;126654;1090;102985;-80
2021/06/20 11:18:19;;;;;;;5.87;2.80;;;;;;;31.57;29.74;99942.31;126569;1090;113906;-79
2021/06/20 11:21:09;;;;;;;3.93;3.30;;;;;;;31.49;30.03;99950.53;126666;1090;103100;-79
2021/06/20 11:23:57;;;;;;;5.27;2.93;;;;;;;31.31;30.49;99936.66;126599;1090;114064;-79
2021/06/20 11:27:03;;;;;;;5.27;2.90;;;;;;;31.19;30.71;99939.01;126675;1090;102868;-79
2021/06/20 11:30:00;;;;;;;6.20;3.30;;;;;;;31.06;31.21;99919.96;126874;1090;114072;-79
2021/06/20 11:32:48;;;;;;;3.98;3.40;;;;;;;31.06;31.12;99915.44;126707;1088;102836;-79
2021/06/20 11:35:38;;;;;;;4.40;3.40;;;;;;;31.07;31.62;99900.95;126597;1090;114281;-80
2021/06/20 11:38:34;;;;;;;6.43;3.30;;;;;;;31.13;32.25;99894.79;126647;1090;101371;-79
2021/06/20 11:41:24;;;;;;;4.37;3.33;;;;;;;31.29;31.96;99920.69;126625;1090;113079;-79
2021/06/20 11:44:15;;;;;;;3.53;3.23;;;;;;;31.13;31.91;99924.42;126717;1089;102868;-80
2021/06/20 11:47:03;;;;;;;6.17;3.20;;;;;;;30.98;32.07;99923.61;126840;1088;102788;-79
2021/06/20 11:49:52;;;;;;;6.43;3.27;;;;;;;30.88;32.15;99897.00;126716;1090;112700;-79
2021/06/20 11:53:02;;;;;;;3.83;3.43;;;;;;;30.89;32.61;99898.67;126824;1089;102988;-79
2021/06/20 11:55:52;;;;;;;4.77;3.37;;;;;;;30.88;32.10;99886.23;126715;1090;113899;-79
2021/06/20 11:58:43;;;;;;;6.33;3.70;;;;;;;30.87;32.67;99881.00;126809;1090;101746;-79
2021/06/20 12:01:43;;;;;;;6.50;3.20;;;;;;;31.00;32.77;99873.09;126617;1090;112958;-79
2021/06/20 12:04:33;;;;;;;4.37;3.57;;;;;;;31.19;32.75;99887.82;126724;1090;101041;-79
2021/06/20 12:07:21;;;;;;;4.33;3.53;;;;;;;31.16;31.77;99888.18;126567;1090;113116;-79
2021/06/20 12:10:14;;;;;;;5.73;3.63;;;;;;;31.12;32.14;99871.57;126816;1090;103319;-79
2021/06/20 12:13:05;;;;;;;4.97;3.10;;;;;;;31.05;31.94;99886.80;126564;1090;113914;-79
2021/06/20 12:16:00;;;;;;;8.87;3.73;;;;;;;30.91;32.48;99869.69;126677;1089;102916;-79
2021/06/20 12:18:50;;;;;;;5.15;3.85;;;;;;;30.91;32.19;99863.47;126581;1090;114105;-79
2021/06/20 12:21:38;;;;;;;6.40;3.60;;;;;;;30.95;32.34;99891.68;126637;1090;103307;-79
2021/06/20 12:24:38;;;;;;;4.00;3.20;;;;;;;30.87;32.16;99879.14;126514;1089;113929;-79
2021/06/20 12:27:34;;;;;;;7.17;3.17;;;;;;;30.71;32.22;99857.02;126647;1089;102949;-80
2021/06/20 12:30:25;;;;;;;5.03;2.90;;;;;;;30.61;32.56;99857.27;126622;1089;113078;-78
2021/06/20 12:33:18;;;;;;;7.53;3.43;;;;;;;30.55;33.15;99883.09;126707;1089;102913;-79
2021/06/20 12:36:07;;;;;;;4.10;3.05;;;;;;;30.51;32.82;99854.02;126484;1089;114257;-79
2021/06/20 12:38:56;;;;;;;4.87;3.43;;;;;;;30.48;33.74;99862.48;126634;1090;102657;-78
2021/06/20 12:41:44;;;;;;;3.70;3.33;;;;;;;30.49;33.84;99851.52;126613;1089;114320;-78
2021/06/20 12:44:58;;;;;;;9.20;3.63;;;;;;;30.54;34.00;99856.37;126625;1090;103007;-78
2021/06/20 12:47:46;;;;;;;3.33;3.03;;;;;;;30.59;33.61;99854.77;126545;1090;114279;-78
2021/06/20 12:50:35;;;;;;;3.23;2.90;;;;;;;30.61;33.29;99854.58;126673;1090;102929;-78